sensor_id;sensor_type;location;lat;lon;timestamp;temperature;humidity
1219;DHT22;599;51.494;6.670;2022-08-19T00:01:40;19.30;1.00
1219;DHT22;599;51.494;6.670;2022-08-19T00:04:09;19.30;1.00
1219;DHT22;599;51.494;6.670;2022-08-19T00:06:38;19.30;1.00
1219;DHT22;599;51.494;6.670;2022-08-19T00:09:07;19.30;1.00
1219;DHT22;599;51.494;6.670;2022-08-19T00:11:35;19.30;1.00
1219;DHT22;599;51.494;6.670;2022-08-19T00:14:04;19.30;1.00
1219;DHT22;599;51.494;6.670;2022-08-19T00:16:31;19.20;1.00
1219;DHT22;599;51.494;6.670;2022-08-19T00:18:58;19.20;1.00
1219;DHT22;599;51.494;6.670;2022-08-19T00:21:25;19.20;1.00
1219;DHT22;599;51.494;6.670;2022-08-19T00:23:53;19.20;1.00
1219;DHT22;599;51.494;6.670;2022-08-19T00:26:20;19.10;1.00
1219;DHT22;599;51.494;6.670;2022-08-19T00:28:46;19.10;1.00
1219;DHT22;599;51.494;6.670;2022-08-19T00:31:12;19.10;1.00
1219;DHT22;599;51.494;6.670;2022-08-19T00:33:38;19.10;1.00
1219;DHT22;599;51.494;6.670;2022-08-19T00:36:07;19.10;1.00
1219;DHT22;599;51.494;6.670;2022-08-19T00:38:36;19.10;1.00
1219;DHT22;599;51.494;6.670;2022-08-19T00:43:30;19.00;1.00
1219;DHT22;599;51.494;6.670;2022-08-19T00:45:56;19.00;1.00
1219;DHT22;599;51.494;6.670;2022-08-19T00:48:22;19.00;1.00
1219;DHT22;599;51.494;6.670;2022-08-19T00:50:50;19.00;1.00
1219;DHT22;599;51.494;6.670;2022-08-19T00:53:20;18.90;1.00
1219;DHT22;599;51.494;6.670;2022-08-19T00:55:50;18.90;1.00
1219;DHT22;599;51.494;6.670;2022-08-19T00:58:19;18.90;1.00
1219;DHT22;599;51.494;6.670;2022-08-19T01:00:47;18.90;1.00
1219;DHT22;599;51.494;6.670;2022-08-19T01:03:17;18.90;1.00
1219;DHT22;599;51.494;6.670;2022-08-19T01:05:46;18.90;1.00
1219;DHT22;599;51.494;6.670;2022-08-19T01:08:14;18.80;1.00
1219;DHT22;599;51.494;6.670;2022-08-19T01:10:51;18.80;1.00
1219;DHT22;599;51.494;6.670;2022-08-19T01:13:21;18.80;1.00
1219;DHT22;599;51.494;6.670;2022-08-19T01:15:54;18.80;1.00
1219;DHT22;599;51.494;6.670;2022-08-19T01:18:25;18.70;1.00
1219;DHT22;599;51.494;6.670;2022-08-19T01:20:54;18.70;1.00
1219;DHT22;599;51.494;6.670;2022-08-19T01:23:23;18.70;1.00
1219;DHT22;599;51.494;6.670;2022-08-19T01:26:10;18.70;1.00
1219;DHT22;599;51.494;6.670;2022-08-19T01:28:38;18.70;1.00
1219;DHT22;599;51.494;6.670;2022-08-19T01:31:04;18.70;1.00
1219;DHT22;599;51.494;6.670;2022-08-19T01:33:31;18.60;1.00
1219;DHT22;599;51.494;6.670;2022-08-19T01:36:10;18.70;1.00
1219;DHT22;599;51.494;6.670;2022-08-19T01:38:40;18.60;1.00
1219;DHT22;599;51.494;6.670;2022-08-19T01:41:11;18.60;1.00
1219;DHT22;599;51.494;6.670;2022-08-19T01:43:38;18.60;1.00
1219;DHT22;599;51.494;6.670;2022-08-19T01:46:04;18.60;1.00
1219;DHT22;599;51.494;6.670;2022-08-19T01:48:41;18.50;1.00
1219;DHT22;599;51.494;6.670;2022-08-19T01:51:09;18.50;1.00
1219;DHT22;599;51.494;6.670;2022-08-19T01:53:36;18.60;1.00
1219;DHT22;599;51.494;6.670;2022-08-19T01:56:04;18.60;1.00
1219;DHT22;599;51.494;6.670;2022-08-19T01:58:35;18.50;1.00
1219;DHT22;599;51.494;6.670;2022-08-19T02:01:05;18.60;1.00
1219;DHT22;599;51.494;6.670;2022-08-19T02:03:31;18.50;1.00
1219;DHT22;599;51.494;6.670;2022-08-19T02:05:59;18.50;1.00
1219;DHT22;599;51.494;6.670;2022-08-19T02:08:27;18.40;1.00
1219;DHT22;599;51.494;6.670;2022-08-19T02:10:53;18.40;1.00
1219;DHT22;599;51.494;6.670;2022-08-19T02:13:19;18.40;1.00
1219;DHT22;599;51.494;6.670;2022-08-19T02:15:45;18.40;1.00
1219;DHT22;599;51.494;6.670;2022-08-19T02:18:11;18.40;1.00
1219;DHT22;599;51.494;6.670;2022-08-19T02:20:38;18.40;1.00
1219;DHT22;599;51.494;6.670;2022-08-19T02:23:06;18.40;1.00
1219;DHT22;599;51.494;6.670;2022-08-19T02:25:32;18.40;1.00
1219;DHT22;599;51.494;6.670;2022-08-19T02:27:58;18.40;1.00
1219;DHT22;599;51.494;6.670;2022-08-19T02:30:24;18.40;1.00
1219;DHT22;599;51.494;6.670;2022-08-19T02:32:51;18.40;1.00
1219;DHT22;599;51.494;6.670;2022-08-19T02:35:18;18.40;1.00
1219;DHT22;599;51.494;6.670;2022-08-19T02:37:44;18.30;1.00
1219;DHT22;599;51.494;6.670;2022-08-19T02:40:30;18.30;1.00
1219;DHT22;599;51.494;6.670;2022-08-19T02:43:04;18.40;1.00
1219;DHT22;599;51.494;6.670;2022-08-19T02:45:34;18.30;1.00
1219;DHT22;599;51.494;6.670;2022-08-19T02:48:02;18.30;1.00
1219;DHT22;599;51.494;6.670;2022-08-19T02:50:28;18.30;1.00
1219;DHT22;599;51.494;6.670;2022-08-19T02:52:54;18.30;1.00
1219;DHT22;599;51.494;6.670;2022-08-19T02:55:20;18.30;1.00
1219;DHT22;599;51.494;6.670;2022-08-19T02:57:46;18.30;1.00
1219;DHT22;599;51.494;6.670;2022-08-19T03:00:14;18.20;1.00
1219;DHT22;599;51.494;6.670;2022-08-19T03:02:40;18.20;1.00
1219;DHT22;599;51.494;6.670;2022-08-19T03:05:08;18.20;1.00
1219;DHT22;599;51.494;6.670;2022-08-19T03:07:36;18.20;1.00
1219;DHT22;599;51.494;6.670;2022-08-19T03:10:03;18.20;1.00
1219;DHT22;599;51.494;6.670;2022-08-19T03:12:29;18.20;1.00
1219;DHT22;599;51.494;6.670;2022-08-19T03:14:54;18.30;1.00
1219;DHT22;599;51.494;6.670;2022-08-19T03:17:21;18.30;1.00
1219;DHT22;599;51.494;6.670;2022-08-19T03:19:47;18.40;1.00
1219;DHT22;599;51.494;6.670;2022-08-19T03:22:12;18.40;1.00
1219;DHT22;599;51.494;6.670;2022-08-19T03:24:39;18.40;1.00
1219;DHT22;599;51.494;6.670;2022-08-19T03:27:05;18.50;1.00
1219;DHT22;599;51.494;6.670;2022-08-19T03:29:32;18.50;1.00
1219;DHT22;599;51.494;6.670;2022-08-19T03:32:00;18.40;1.00
1219;DHT22;599;51.494;6.670;2022-08-19T03:34:28;18.40;1.00
1219;DHT22;599;51.494;6.670;2022-08-19T03:36:57;18.40;1.00
1219;DHT22;599;51.494;6.670;2022-08-19T03:39:25;18.40;1.00
1219;DHT22;599;51.494;6.670;2022-08-19T03:41:53;18.40;1.00
1219;DHT22;599;51.494;6.670;2022-08-19T03:44:22;18.40;1.00
1219;DHT22;599;51.494;6.670;2022-08-19T03:46:51;18.40;1.00
1219;DHT22;599;51.494;6.670;2022-08-19T03:49:19;18.40;1.00
1219;DHT22;599;51.494;6.670;2022-08-19T03:51:47;18.40;1.00
1219;DHT22;599;51.494;6.670;2022-08-19T03:54:15;18.40;1.00
1219;DHT22;599;51.494;6.670;2022-08-19T03:56:45;18.40;1.00
1219;DHT22;599;51.494;6.670;2022-08-19T03:59:19;18.30;1.00
1219;DHT22;599;51.494;6.670;2022-08-19T04:01:51;18.30;1.00
1219;DHT22;599;51.494;6.670;2022-08-19T04:04:26;18.30;1.00
1219;DHT22;599;51.494;6.670;2022-08-19T04:06:52;18.30;1.00
1219;DHT22;599;51.494;6.670;2022-08-19T04:09:19;18.30;1.00
1219;DHT22;599;51.494;6.670;2022-08-19T04:11:52;18.30;1.00
1219;DHT22;599;51.494;6.670;2022-08-19T04:14:26;18.30;1.00
1219;DHT22;599;51.494;6.670;2022-08-19T04:16:56;18.30;1.00
1219;DHT22;599;51.494;6.670;2022-08-19T04:19:22;18.30;1.00
1219;DHT22;599;51.494;6.670;2022-08-19T04:21:51;18.20;1.00
1219;DHT22;599;51.494;6.670;2022-08-19T04:24:19;18.20;1.00
1219;DHT22;599;51.494;6.670;2022-08-19T04:26:45;18.20;1.00
1219;DHT22;599;51.494;6.670;2022-08-19T04:29:23;18.20;1.00
1219;DHT22;599;51.494;6.670;2022-08-19T04:31:51;18.10;1.00
1219;DHT22;599;51.494;6.670;2022-08-19T04:34:20;18.10;1.00
1219;DHT22;599;51.494;6.670;2022-08-19T04:36:48;18.10;1.00
1219;DHT22;599;51.494;6.670;2022-08-19T04:39:21;18.10;1.00
1219;DHT22;599;51.494;6.670;2022-08-19T04:42:09;18.10;1.00
1219;DHT22;599;51.494;6.670;2022-08-19T04:44:58;18.00;1.00
1219;DHT22;599;51.494;6.670;2022-08-19T04:47:28;18.00;1.00
1219;DHT22;599;51.494;6.670;2022-08-19T04:49:54;18.00;1.00
1219;DHT22;599;51.494;6.670;2022-08-19T04:52:20;18.00;1.00
1219;DHT22;599;51.494;6.670;2022-08-19T04:54:46;18.00;1.00
1219;DHT22;599;51.494;6.670;2022-08-19T04:57:12;18.00;1.00
1219;DHT22;599;51.494;6.670;2022-08-19T04:59:39;18.00;1.00
1219;DHT22;599;51.494;6.670;2022-08-19T05:02:12;18.00;1.00
1219;DHT22;599;51.494;6.670;2022-08-19T05:04:38;18.00;1.00
1219;DHT22;599;51.494;6.670;2022-08-19T05:07:05;18.10;1.00
1219;DHT22;599;51.494;6.670;2022-08-19T05:09:32;18.10;1.00
1219;DHT22;599;51.494;6.670;2022-08-19T05:12:00;18.10;1.00
1219;DHT22;599;51.494;6.670;2022-08-19T05:14:26;18.10;1.00
1219;DHT22;599;51.494;6.670;2022-08-19T05:16:52;18.10;1.00
1219;DHT22;599;51.494;6.670;2022-08-19T05:19:17;18.10;1.00
1219;DHT22;599;51.494;6.670;2022-08-19T05:22:02;18.10;1.00
1219;DHT22;599;51.494;6.670;2022-08-19T05:24:46;18.20;1.00
1219;DHT22;599;51.494;6.670;2022-08-19T05:27:12;18.20;1.00
1219;DHT22;599;51.494;6.670;2022-08-19T05:29:39;18.20;1.00
1219;DHT22;599;51.494;6.670;2022-08-19T05:32:06;18.30;1.00
1219;DHT22;599;51.494;6.670;2022-08-19T05:34:36;18.30;1.00
1219;DHT22;599;51.494;6.670;2022-08-19T05:37:04;18.30;1.00
1219;DHT22;599;51.494;6.670;2022-08-19T05:39:32;18.30;1.00
1219;DHT22;599;51.494;6.670;2022-08-19T05:42:03;18.40;1.00
1219;DHT22;599;51.494;6.670;2022-08-19T05:44:38;18.40;1.00
1219;DHT22;599;51.494;6.670;2022-08-19T05:47:06;18.50;1.00
1219;DHT22;599;51.494;6.670;2022-08-19T05:49:34;18.50;1.00
1219;DHT22;599;51.494;6.670;2022-08-19T05:52:06;18.50;1.00
1219;DHT22;599;51.494;6.670;2022-08-19T05:54:34;18.50;1.00
1219;DHT22;599;51.494;6.670;2022-08-19T05:57:06;18.50;1.00
1219;DHT22;599;51.494;6.670;2022-08-19T05:59:32;18.60;1.00
1219;DHT22;599;51.494;6.670;2022-08-19T06:02:01;18.60;1.00
1219;DHT22;599;51.494;6.670;2022-08-19T06:04:28;18.70;1.00
1219;DHT22;599;51.494;6.670;2022-08-19T06:06:54;18.70;1.00
1219;DHT22;599;51.494;6.670;2022-08-19T06:09:23;18.80;1.00
1219;DHT22;599;51.494;6.670;2022-08-19T06:11:52;18.80;1.00
1219;DHT22;599;51.494;6.670;2022-08-19T06:14:23;18.90;1.00
1219;DHT22;599;51.494;6.670;2022-08-19T06:16:51;18.90;1.00
1219;DHT22;599;51.494;6.670;2022-08-19T06:19:22;19.00;1.00
1219;DHT22;599;51.494;6.670;2022-08-19T06:21:51;19.10;1.00
1219;DHT22;599;51.494;6.670;2022-08-19T06:24:22;19.20;1.00
1219;DHT22;599;51.494;6.670;2022-08-19T06:26:51;19.20;1.00
1219;DHT22;599;51.494;6.670;2022-08-19T06:29:21;19.30;1.00
1219;DHT22;599;51.494;6.670;2022-08-19T06:31:51;19.30;1.00
1219;DHT22;599;51.494;6.670;2022-08-19T06:34:20;19.40;1.00
1219;DHT22;599;51.494;6.670;2022-08-19T06:36:49;19.40;1.00
1219;DHT22;599;51.494;6.670;2022-08-19T06:39:23;19.50;1.00
1219;DHT22;599;51.494;6.670;2022-08-19T06:41:54;19.60;1.00
1219;DHT22;599;51.494;6.670;2022-08-19T06:44:23;19.70;1.00
1219;DHT22;599;51.494;6.670;2022-08-19T06:46:52;19.80;1.00
1219;DHT22;599;51.494;6.670;2022-08-19T06:49:22;19.90;1.00
1219;DHT22;599;51.494;6.670;2022-08-19T06:51:50;19.90;1.00
1219;DHT22;599;51.494;6.670;2022-08-19T06:54:17;20.00;1.00
1219;DHT22;599;51.494;6.670;2022-08-19T06:56:44;19.90;1.00
1219;DHT22;599;51.494;6.670;2022-08-19T06:59:14;20.00;1.00
1219;DHT22;599;51.494;6.670;2022-08-19T07:01:47;20.00;1.00
1219;DHT22;599;51.494;6.670;2022-08-19T07:04:19;20.10;1.00
1219;DHT22;599;51.494;6.670;2022-08-19T07:06:49;20.20;1.00
1219;DHT22;599;51.494;6.670;2022-08-19T07:09:17;20.30;1.00
1219;DHT22;599;51.494;6.670;2022-08-19T07:11:46;20.30;1.00
1219;DHT22;599;51.494;6.670;2022-08-19T07:14:14;20.40;1.00
1219;DHT22;599;51.494;6.670;2022-08-19T07:16:44;20.50;1.00
1219;DHT22;599;51.494;6.670;2022-08-19T07:19:12;20.50;1.00
1219;DHT22;599;51.494;6.670;2022-08-19T07:21:38;20.70;1.00
1219;DHT22;599;51.494;6.670;2022-08-19T07:24:05;20.80;1.00
1219;DHT22;599;51.494;6.670;2022-08-19T07:26:35;20.90;1.00
1219;DHT22;599;51.494;6.670;2022-08-19T07:29:05;21.00;1.00
1219;DHT22;599;51.494;6.670;2022-08-19T07:31:32;21.10;1.00
1219;DHT22;599;51.494;6.670;2022-08-19T07:34:03;21.20;1.00
1219;DHT22;599;51.494;6.670;2022-08-19T07:36:38;21.30;1.00
1219;DHT22;599;51.494;6.670;2022-08-19T07:39:09;21.50;1.00
1219;DHT22;599;51.494;6.670;2022-08-19T07:41:39;21.70;1.00
1219;DHT22;599;51.494;6.670;2022-08-19T07:44:06;21.70;1.00
1219;DHT22;599;51.494;6.670;2022-08-19T07:46:35;21.80;1.00
1219;DHT22;599;51.494;6.670;2022-08-19T07:49:04;21.90;1.00
1219;DHT22;599;51.494;6.670;2022-08-19T07:51:31;22.00;1.00
1219;DHT22;599;51.494;6.670;2022-08-19T07:53:58;22.10;1.00
1219;DHT22;599;51.494;6.670;2022-08-19T07:56:25;22.10;1.00
1219;DHT22;599;51.494;6.670;2022-08-19T07:58:53;22.10;1.00
1219;DHT22;599;51.494;6.670;2022-08-19T08:01:24;22.20;1.00
1219;DHT22;599;51.494;6.670;2022-08-19T08:03:53;22.20;1.00
1219;DHT22;599;51.494;6.670;2022-08-19T08:06:39;22.20;1.00
1219;DHT22;599;51.494;6.670;2022-08-19T08:09:28;22.30;1.00
1219;DHT22;599;51.494;6.670;2022-08-19T08:12:11;22.50;1.00
1219;DHT22;599;51.494;6.670;2022-08-19T08:14:47;22.70;1.00
1219;DHT22;599;51.494;6.670;2022-08-19T08:17:17;22.80;1.00
1219;DHT22;599;51.494;6.670;2022-08-19T08:19:45;22.70;1.00
1219;DHT22;599;51.494;6.670;2022-08-19T08:22:15;22.70;1.00
1219;DHT22;599;51.494;6.670;2022-08-19T08:25:11;22.80;1.00
1219;DHT22;599;51.494;6.670;2022-08-19T08:27:41;22.90;1.00
1219;DHT22;599;51.494;6.670;2022-08-19T08:30:11;22.90;1.00
1219;DHT22;599;51.494;6.670;2022-08-19T08:32:40;22.90;1.00
1219;DHT22;599;51.494;6.670;2022-08-19T08:35:10;23.00;99.90
1219;DHT22;599;51.494;6.670;2022-08-19T08:37:40;23.00;99.90
1219;DHT22;599;51.494;6.670;2022-08-19T08:40:13;23.10;99.90
1219;DHT22;599;51.494;6.670;2022-08-19T08:42:57;23.10;99.90
1219;DHT22;599;51.494;6.670;2022-08-19T08:45:28;23.20;99.90
1219;DHT22;599;51.494;6.670;2022-08-19T08:47:58;23.40;99.90
1219;DHT22;599;51.494;6.670;2022-08-19T08:50:41;23.50;99.90
1219;DHT22;599;51.494;6.670;2022-08-19T08:53:10;23.70;99.90
1219;DHT22;599;51.494;6.670;2022-08-19T08:55:40;23.80;99.90
1219;DHT22;599;51.494;6.670;2022-08-19T08:58:15;24.00;99.90
1219;DHT22;599;51.494;6.670;2022-08-19T09:00:47;24.00;99.90
1219;DHT22;599;51.494;6.670;2022-08-19T09:03:23;24.10;99.90
1219;DHT22;599;51.494;6.670;2022-08-19T09:09:41;24.30;99.90
1219;DHT22;599;51.494;6.670;2022-08-19T09:12:16;24.40;99.90
1219;DHT22;599;51.494;6.670;2022-08-19T09:15:03;24.40;99.90
1219;DHT22;599;51.494;6.670;2022-08-19T09:17:31;24.60;99.90
1219;DHT22;599;51.494;6.670;2022-08-19T09:20:34;24.70;99.90
1219;DHT22;599;51.494;6.670;2022-08-19T09:23:00;24.90;99.90
1219;DHT22;599;51.494;6.670;2022-08-19T09:25:26;25.00;99.90
1219;DHT22;599;51.494;6.670;2022-08-19T09:27:53;25.00;99.90
1219;DHT22;599;51.494;6.670;2022-08-19T09:30:27;24.90;99.90
1219;DHT22;599;51.494;6.670;2022-08-19T09:32:55;25.10;99.90
1219;DHT22;599;51.494;6.670;2022-08-19T09:35:23;25.10;99.90
1219;DHT22;599;51.494;6.670;2022-08-19T09:37:51;25.10;99.90
1219;DHT22;599;51.494;6.670;2022-08-19T09:40:18;25.30;99.90
1219;DHT22;599;51.494;6.670;2022-08-19T09:42:46;25.40;99.90
1219;DHT22;599;51.494;6.670;2022-08-19T09:45:18;25.40;99.90
1219;DHT22;599;51.494;6.670;2022-08-19T09:47:46;25.40;99.90
1219;DHT22;599;51.494;6.670;2022-08-19T09:50:12;25.50;99.90
1219;DHT22;599;51.494;6.670;2022-08-19T09:52:39;25.60;99.90
1219;DHT22;599;51.494;6.670;2022-08-19T09:55:06;25.70;99.90
1219;DHT22;599;51.494;6.670;2022-08-19T09:57:34;25.90;99.90
1219;DHT22;599;51.494;6.670;2022-08-19T10:00:01;26.10;99.90
1219;DHT22;599;51.494;6.670;2022-08-19T10:02:33;26.90;99.90
1219;DHT22;599;51.494;6.670;2022-08-19T10:05:00;28.10;99.90
1219;DHT22;599;51.494;6.670;2022-08-19T10:07:44;28.50;99.90
1219;DHT22;599;51.494;6.670;2022-08-19T10:10:10;28.30;99.90
1219;DHT22;599;51.494;6.670;2022-08-19T10:12:37;28.00;99.90
1219;DHT22;599;51.494;6.670;2022-08-19T10:15:05;27.80;99.90
1219;DHT22;599;51.494;6.670;2022-08-19T10:17:31;27.90;99.90
1219;DHT22;599;51.494;6.670;2022-08-19T10:19:59;27.30;99.90
1219;DHT22;599;51.494;6.670;2022-08-19T10:22:25;27.10;99.90
1219;DHT22;599;51.494;6.670;2022-08-19T10:24:51;27.10;99.90
1219;DHT22;599;51.494;6.670;2022-08-19T10:27:17;26.90;99.90
1219;DHT22;599;51.494;6.670;2022-08-19T10:29:43;27.10;99.90
1219;DHT22;599;51.494;6.670;2022-08-19T10:32:10;27.30;99.90
1219;DHT22;599;51.494;6.670;2022-08-19T10:34:37;27.30;99.90
1219;DHT22;599;51.494;6.670;2022-08-19T10:37:04;27.20;99.90
1219;DHT22;599;51.494;6.670;2022-08-19T10:39:33;27.30;99.90
1219;DHT22;599;51.494;6.670;2022-08-19T10:42:03;27.50;99.90
1219;DHT22;599;51.494;6.670;2022-08-19T10:44:32;27.60;99.90
1219;DHT22;599;51.494;6.670;2022-08-19T10:46:59;27.60;99.90
1219;DHT22;599;51.494;6.670;2022-08-19T10:49:25;27.50;99.90
1219;DHT22;599;51.494;6.670;2022-08-19T10:51:51;27.90;99.90
1219;DHT22;599;51.494;6.670;2022-08-19T10:54:35;28.40;99.90
1219;DHT22;599;51.494;6.670;2022-08-19T10:59:49;33.10;99.90
1219;DHT22;599;51.494;6.670;2022-08-19T11:02:15;36.10;88.50
1219;DHT22;599;51.494;6.670;2022-08-19T11:04:41;38.10;50.30
1219;DHT22;599;51.494;6.670;2022-08-19T11:07:07;38.80;33.90
1219;DHT22;599;51.494;6.670;2022-08-19T11:09:39;38.50;32.50
1219;DHT22;599;51.494;6.670;2022-08-19T11:12:06;39.30;23.40
1219;DHT22;599;51.494;6.670;2022-08-19T11:14:34;40.00;21.80
1219;DHT22;599;51.494;6.670;2022-08-19T11:17:01;40.50;18.60
1219;DHT22;599;51.494;6.670;2022-08-19T11:19:31;39.90;19.00
1219;DHT22;599;51.494;6.670;2022-08-19T11:21:57;40.30;15.40
1219;DHT22;599;51.494;6.670;2022-08-19T11:24:27;40.00;13.30
1219;DHT22;599;51.494;6.670;2022-08-19T11:26:58;38.50;18.30
1219;DHT22;599;51.494;6.670;2022-08-19T11:29:28;36.70;28.80
1219;DHT22;599;51.494;6.670;2022-08-19T11:31:54;35.40;34.50
1219;DHT22;599;51.494;6.670;2022-08-19T11:34:23;34.20;40.00
1219;DHT22;599;51.494;6.670;2022-08-19T11:36:51;34.50;43.50
1219;DHT22;599;51.494;6.670;2022-08-19T11:39:20;34.80;41.40
1219;DHT22;599;51.494;6.670;2022-08-19T11:41:47;35.40;35.70
1219;DHT22;599;51.494;6.670;2022-08-19T11:44:13;36.70;35.20
1219;DHT22;599;51.494;6.670;2022-08-19T11:46:41;38.70;22.20
1219;DHT22;599;51.494;6.670;2022-08-19T11:49:11;38.40;16.30
1219;DHT22;599;51.494;6.670;2022-08-19T11:51:38;39.00;18.00
1219;DHT22;599;51.494;6.670;2022-08-19T11:54:05;39.40;10.40
1219;DHT22;599;51.494;6.670;2022-08-19T11:56:32;38.80;13.10
1219;DHT22;599;51.494;6.670;2022-08-19T11:58:58;38.00;15.60
1219;DHT22;599;51.494;6.670;2022-08-19T12:01:26;38.50;14.90
1219;DHT22;599;51.494;6.670;2022-08-19T12:03:54;38.40;11.50
1219;DHT22;599;51.494;6.670;2022-08-19T12:06:23;38.20;16.80
1219;DHT22;599;51.494;6.670;2022-08-19T12:08:58;38.30;16.80
1219;DHT22;599;51.494;6.670;2022-08-19T12:11:26;39.90;7.90
1219;DHT22;599;51.494;6.670;2022-08-19T12:13:52;41.50;3.30
1219;DHT22;599;51.494;6.670;2022-08-19T12:16:24;43.00;1.00
1219;DHT22;599;51.494;6.670;2022-08-19T12:18:53;43.70;1.00
1219;DHT22;599;51.494;6.670;2022-08-19T12:21:24;43.00;1.00
1219;DHT22;599;51.494;6.670;2022-08-19T12:23:53;40.50;1.00
1219;DHT22;599;51.494;6.670;2022-08-19T12:26:20;38.80;3.30
1219;DHT22;599;51.494;6.670;2022-08-19T12:28:46;37.20;10.80
1219;DHT22;599;51.494;6.670;2022-08-19T12:31:14;35.90;19.50
1219;DHT22;599;51.494;6.670;2022-08-19T12:33:41;34.80;26.50
1219;DHT22;599;51.494;6.670;2022-08-19T12:36:10;34.20;30.50
1219;DHT22;599;51.494;6.670;2022-08-19T12:38:38;33.70;27.20
1219;DHT22;599;51.494;6.670;2022-08-19T12:41:05;33.10;30.90
1219;DHT22;599;51.494;6.670;2022-08-19T12:43:36;32.80;39.40
1219;DHT22;599;51.494;6.670;2022-08-19T12:46:04;32.40;43.00
1219;DHT22;599;51.494;6.670;2022-08-19T12:48:32;32.00;45.90
1219;DHT22;599;51.494;6.670;2022-08-19T12:50:58;31.80;47.40
1219;DHT22;599;51.494;6.670;2022-08-19T12:53:24;31.90;55.30
1219;DHT22;599;51.494;6.670;2022-08-19T12:55:57;31.90;46.60
1219;DHT22;599;51.494;6.670;2022-08-19T12:58:25;32.10;50.40
1219;DHT22;599;51.494;6.670;2022-08-19T13:00:52;32.00;47.50
1219;DHT22;599;51.494;6.670;2022-08-19T13:03:18;32.00;43.90
1219;DHT22;599;51.494;6.670;2022-08-19T13:05:44;32.00;47.80
1219;DHT22;599;51.494;6.670;2022-08-19T13:08:10;31.80;43.40
1219;DHT22;599;51.494;6.670;2022-08-19T13:10:37;31.50;43.60
1219;DHT22;599;51.494;6.670;2022-08-19T13:13:06;31.30;49.40
1219;DHT22;599;51.494;6.670;2022-08-19T13:15:35;31.30;46.60
1219;DHT22;599;51.494;6.670;2022-08-19T13:18:03;31.00;47.90
1219;DHT22;599;51.494;6.670;2022-08-19T13:20:29;31.00;51.80
1219;DHT22;599;51.494;6.670;2022-08-19T13:22:55;31.10;57.40
1219;DHT22;599;51.494;6.670;2022-08-19T13:25:22;31.20;54.70
1219;DHT22;599;51.494;6.670;2022-08-19T13:27:49;31.20;54.10
1219;DHT22;599;51.494;6.670;2022-08-19T13:30:17;31.20;51.90
1219;DHT22;599;51.494;6.670;2022-08-19T13:33:04;31.10;47.40
1219;DHT22;599;51.494;6.670;2022-08-19T13:35:57;31.10;53.90
1219;DHT22;599;51.494;6.670;2022-08-19T13:38:24;30.90;57.00
1219;DHT22;599;51.494;6.670;2022-08-19T13:40:52;31.10;55.10
1219;DHT22;599;51.494;6.670;2022-08-19T13:43:24;31.20;58.30
1219;DHT22;599;51.494;6.670;2022-08-19T13:45:53;31.00;56.30
1219;DHT22;599;51.494;6.670;2022-08-19T13:48:21;30.90;57.00
1219;DHT22;599;51.494;6.670;2022-08-19T13:50:47;31.00;60.80
1219;DHT22;599;51.494;6.670;2022-08-19T13:53:14;30.80;65.10
1219;DHT22;599;51.494;6.670;2022-08-19T13:55:42;31.10;76.30
1219;DHT22;599;51.494;6.670;2022-08-19T13:58:09;31.00;70.20
1219;DHT22;599;51.494;6.670;2022-08-19T14:00:41;30.70;62.80
1219;DHT22;599;51.494;6.670;2022-08-19T14:03:09;30.50;69.30
1219;DHT22;599;51.494;6.670;2022-08-19T14:05:35;30.50;69.30
1219;DHT22;599;51.494;6.670;2022-08-19T14:08:02;30.40;69.30
1219;DHT22;599;51.494;6.670;2022-08-19T14:10:28;30.40;70.20
1219;DHT22;599;51.494;6.670;2022-08-19T14:12:57;30.50;78.70
1219;DHT22;599;51.494;6.670;2022-08-19T14:15:24;30.50;70.20
1219;DHT22;599;51.494;6.670;2022-08-19T14:17:51;30.00;66.20
1219;DHT22;599;51.494;6.670;2022-08-19T14:20:17;29.90;76.60
1219;DHT22;599;51.494;6.670;2022-08-19T14:22:44;30.00;72.30
1219;DHT22;599;51.494;6.670;2022-08-19T14:25:17;30.00;70.90
1219;DHT22;599;51.494;6.670;2022-08-19T14:27:44;30.10;69.70
1219;DHT22;599;51.494;6.670;2022-08-19T14:30:15;29.90;73.80
1219;DHT22;599;51.494;6.670;2022-08-19T14:32:43;29.80;62.20
1219;DHT22;599;51.494;6.670;2022-08-19T14:35:10;29.80;66.00
1219;DHT22;599;51.494;6.670;2022-08-19T14:37:38;29.80;65.10
1219;DHT22;599;51.494;6.670;2022-08-19T14:40:05;29.90;67.30
1219;DHT22;599;51.494;6.670;2022-08-19T14:42:31;29.90;72.00
1219;DHT22;599;51.494;6.670;2022-08-19T14:44:58;29.80;61.70
1219;DHT22;599;51.494;6.670;2022-08-19T14:47:25;29.40;61.70
1219;DHT22;599;51.494;6.670;2022-08-19T14:49:52;29.40;63.20
1219;DHT22;599;51.494;6.670;2022-08-19T14:52:19;29.40;73.40
1219;DHT22;599;51.494;6.670;2022-08-19T14:54:44;29.20;76.20
1219;DHT22;599;51.494;6.670;2022-08-19T14:57:14;29.10;76.90
1219;DHT22;599;51.494;6.670;2022-08-19T14:59:42;29.20;82.20
1219;DHT22;599;51.494;6.670;2022-08-19T15:02:09;29.30;84.00
1219;DHT22;599;51.494;6.670;2022-08-19T15:04:36;29.30;79.10
1219;DHT22;599;51.494;6.670;2022-08-19T15:07:03;29.20;73.10
1219;DHT22;599;51.494;6.670;2022-08-19T15:09:33;29.20;83.90
1219;DHT22;599;51.494;6.670;2022-08-19T15:12:00;29.20;86.20
1219;DHT22;599;51.494;6.670;2022-08-19T15:14:28;29.00;78.50
1219;DHT22;599;51.494;6.670;2022-08-19T15:16:59;29.00;83.90
1219;DHT22;599;51.494;6.670;2022-08-19T15:19:25;29.00;76.80
1219;DHT22;599;51.494;6.670;2022-08-19T15:21:50;28.90;74.60
1219;DHT22;599;51.494;6.670;2022-08-19T15:24:16;28.90;76.50
1219;DHT22;599;51.494;6.670;2022-08-19T15:26:43;28.70;86.40
1219;DHT22;599;51.494;6.670;2022-08-19T15:29:09;28.80;84.20
1219;DHT22;599;51.494;6.670;2022-08-19T15:31:35;28.80;91.70
1219;DHT22;599;51.494;6.670;2022-08-19T15:34:02;28.90;88.60
1219;DHT22;599;51.494;6.670;2022-08-19T15:36:28;28.90;90.80
1219;DHT22;599;51.494;6.670;2022-08-19T15:38:55;28.70;86.80
1219;DHT22;599;51.494;6.670;2022-08-19T15:41:28;28.60;84.40
1219;DHT22;599;51.494;6.670;2022-08-19T15:44:04;28.30;83.80
1219;DHT22;599;51.494;6.670;2022-08-19T15:46:36;28.20;92.50
1219;DHT22;599;51.494;6.670;2022-08-19T15:49:05;28.30;95.40
1219;DHT22;599;51.494;6.670;2022-08-19T15:51:33;28.30;93.80
1219;DHT22;599;51.494;6.670;2022-08-19T15:54:04;28.20;94.90
1219;DHT22;599;51.494;6.670;2022-08-19T15:56:31;28.10;96.80
1219;DHT22;599;51.494;6.670;2022-08-19T15:59:16;27.90;99.10
1219;DHT22;599;51.494;6.670;2022-08-19T16:02:00;27.90;99.90
1219;DHT22;599;51.494;6.670;2022-08-19T16:04:44;27.80;99.90
1219;DHT22;599;51.494;6.670;2022-08-19T16:07:28;27.80;99.90
1219;DHT22;599;51.494;6.670;2022-08-19T16:09:54;27.60;99.90
1219;DHT22;599;51.494;6.670;2022-08-19T16:12:20;27.60;99.90
1219;DHT22;599;51.494;6.670;2022-08-19T16:14:49;27.60;99.90
1219;DHT22;599;51.494;6.670;2022-08-19T16:17:15;27.60;99.90
1219;DHT22;599;51.494;6.670;2022-08-19T16:19:41;27.40;99.90
1219;DHT22;599;51.494;6.670;2022-08-19T16:22:06;27.40;99.90
1219;DHT22;599;51.494;6.670;2022-08-19T16:24:33;27.30;99.90
1219;DHT22;599;51.494;6.670;2022-08-19T16:26:59;27.30;99.90
1219;DHT22;599;51.494;6.670;2022-08-19T16:29:27;27.30;99.90
1219;DHT22;599;51.494;6.670;2022-08-19T16:31:54;27.20;99.90
1219;DHT22;599;51.494;6.670;2022-08-19T16:34:21;27.00;99.90
1219;DHT22;599;51.494;6.670;2022-08-19T16:36:48;27.00;99.90
1219;DHT22;599;51.494;6.670;2022-08-19T16:39:15;26.90;99.90
1219;DHT22;599;51.494;6.670;2022-08-19T16:41:43;26.80;99.90
1219;DHT22;599;51.494;6.670;2022-08-19T16:44:12;26.80;99.90
1219;DHT22;599;51.494;6.670;2022-08-19T16:46:39;26.60;99.90
1219;DHT22;599;51.494;6.670;2022-08-19T16:49:07;26.60;99.90